sensor_id;sensor_type;location;lat;lon;timestamp;P1;durP1;ratioP1;P2;durP2;ratioP2
46593;SDS011;35342;52.378;4.648;2022-09-09T00:04:05;4.50;;;2.10;;
46593;SDS011;35342;52.378;4.648;2022-09-09T00:07:03;5.82;;;2.72;;
46593;SDS011;35342;52.378;4.648;2022-09-09T00:13:13;3.38;;;2.42;;
46593;SDS011;35342;52.378;4.648;2022-09-09T00:21:34;3.22;;;2.25;;
46593;SDS011;35342;52.378;4.648;2022-09-09T00:27:21;4.93;;;2.55;;
46593;SDS011;35342;52.378;4.648;2022-09-09T00:30:22;5.78;;;2.83;;
46593;SDS011;35342;52.378;4.648;2022-09-09T00:32:59;4.68;;;2.65;;
46593;SDS011;35342;52.378;4.648;2022-09-09T00:35:37;5.28;;;2.88;;
46593;SDS011;35342;52.378;4.648;2022-09-09T00:38:52;6.87;;;2.83;;
46593;SDS011;35342;52.378;4.648;2022-09-09T00:41:09;4.93;;;2.92;;
46593;SDS011;35342;52.378;4.648;2022-09-09T00:44:00;11.30;;;3.60;;
46593;SDS011;35342;52.378;4.648;2022-09-09T00:55:26;7.82;;;3.70;;
46593;SDS011;35342;52.378;4.648;2022-09-09T00:58:10;6.43;;;3.75;;
46593;SDS011;35342;52.378;4.648;2022-09-09T01:00:47;8.18;;;3.97;;
46593;SDS011;35342;52.378;4.648;2022-09-09T01:03:28;4.80;;;3.67;;
46593;SDS011;35342;52.378;4.648;2022-09-09T01:12:05;13.13;;;4.93;;
46593;SDS011;35342;52.378;4.648;2022-09-09T01:28:10;6.93;;;4.70;;
46593;SDS011;35342;52.378;4.648;2022-09-09T01:30:51;8.65;;;4.82;;
46593;SDS011;35342;52.378;4.648;2022-09-09T01:33:18;9.73;;;5.57;;
46593;SDS011;35342;52.378;4.648;2022-09-09T01:38:25;8.43;;;6.50;;
46593;SDS011;35342;52.378;4.648;2022-09-09T01:40:53;9.57;;;6.18;;
46593;SDS011;35342;52.378;4.648;2022-09-09T01:43:19;12.93;;;6.35;;
46593;SDS011;35342;52.378;4.648;2022-09-09T01:45:47;12.68;;;5.93;;
46593;SDS011;35342;52.378;4.648;2022-09-09T01:48:18;11.77;;;7.22;;
46593;SDS011;35342;52.378;4.648;2022-09-09T01:50:46;9.02;;;7.07;;
46593;SDS011;35342;52.378;4.648;2022-09-09T01:53:11;17.67;;;6.70;;
46593;SDS011;35342;52.378;4.648;2022-09-09T01:55:41;13.73;;;5.95;;
46593;SDS011;35342;52.378;4.648;2022-09-09T01:58:28;10.85;;;6.68;;
46593;SDS011;35342;52.378;4.648;2022-09-09T02:01:34;8.65;;;7.13;;
46593;SDS011;35342;52.378;4.648;2022-09-09T02:10:21;25.42;;;8.57;;
46593;SDS011;35342;52.378;4.648;2022-09-09T02:13:07;18.38;;;8.52;;
46593;SDS011;35342;52.378;4.648;2022-09-09T02:18:29;9.68;;;7.18;;
46593;SDS011;35342;52.378;4.648;2022-09-09T02:21:09;14.77;;;8.38;;
46593;SDS011;35342;52.378;4.648;2022-09-09T02:23:36;12.85;;;8.32;;
46593;SDS011;35342;52.378;4.648;2022-09-09T02:26:04;16.17;;;9.05;;
46593;SDS011;35342;52.378;4.648;2022-09-09T02:28:32;14.90;;;8.77;;
46593;SDS011;35342;52.378;4.648;2022-09-09T02:31:01;16.08;;;9.20;;
46593;SDS011;35342;52.378;4.648;2022-09-09T02:33:28;16.23;;;9.23;;
46593;SDS011;35342;52.378;4.648;2022-09-09T02:36:02;14.23;;;8.57;;
46593;SDS011;35342;52.378;4.648;2022-09-09T02:38:32;11.52;;;8.68;;
46593;SDS011;35342;52.378;4.648;2022-09-09T02:41:05;17.70;;;10.52;;
46593;SDS011;35342;52.378;4.648;2022-09-09T02:43:32;15.00;;;8.73;;
46593;SDS011;35342;52.378;4.648;2022-09-09T02:46:18;15.93;;;9.00;;
46593;SDS011;35342;52.378;4.648;2022-09-09T02:48:58;14.95;;;9.63;;
46593;SDS011;35342;52.378;4.648;2022-09-09T02:54:38;10.10;;;8.82;;
46593;SDS011;35342;52.378;4.648;2022-09-09T02:57:10;15.35;;;9.85;;
46593;SDS011;35342;52.378;4.648;2022-09-09T02:59:47;15.98;;;9.02;;
46593;SDS011;35342;52.378;4.648;2022-09-09T03:02:14;11.70;;;8.93;;
46593;SDS011;35342;52.378;4.648;2022-09-09T03:04:40;13.63;;;8.90;;
46593;SDS011;35342;52.378;4.648;2022-09-09T03:07:09;12.63;;;9.10;;
46593;SDS011;35342;52.378;4.648;2022-09-09T03:09:36;11.50;;;9.13;;
46593;SDS011;35342;52.378;4.648;2022-09-09T03:12:02;11.57;;;8.35;;
46593;SDS011;35342;52.378;4.648;2022-09-09T03:14:29;14.98;;;8.48;;
46593;SDS011;35342;52.378;4.648;2022-09-09T03:16:55;13.07;;;8.07;;
46593;SDS011;35342;52.378;4.648;2022-09-09T03:19:23;9.50;;;8.05;;
46593;SDS011;35342;52.378;4.648;2022-09-09T03:21:49;10.10;;;6.85;;
46593;SDS011;35342;52.378;4.648;2022-09-09T03:24:15;9.88;;;6.95;;
46593;SDS011;35342;52.378;4.648;2022-09-09T03:26:41;10.93;;;6.85;;
46593;SDS011;35342;52.378;4.648;2022-09-09T03:29:09;9.90;;;6.97;;
46593;SDS011;35342;52.378;4.648;2022-09-09T03:31:37;9.77;;;7.07;;
46593;SDS011;35342;52.378;4.648;2022-09-09T03:34:04;9.30;;;7.15;;
46593;SDS011;35342;52.378;4.648;2022-09-09T03:36:30;8.75;;;6.45;;
46593;SDS011;35342;52.378;4.648;2022-09-09T03:38:57;11.63;;;5.65;;
46593;SDS011;35342;52.378;4.648;2022-09-09T03:41:24;11.48;;;6.45;;
46593;SDS011;35342;52.378;4.648;2022-09-09T03:43:51;7.72;;;5.60;;
46593;SDS011;35342;52.378;4.648;2022-09-09T03:46:18;9.75;;;6.43;;
46593;SDS011;35342;52.378;4.648;2022-09-09T03:48:48;7.70;;;6.07;;
46593;SDS011;35342;52.378;4.648;2022-09-09T03:51:15;8.55;;;6.30;;
46593;SDS011;35342;52.378;4.648;2022-09-09T03:53:41;12.55;;;6.20;;
46593;SDS011;35342;52.378;4.648;2022-09-09T03:56:08;8.55;;;6.03;;
46593;SDS011;35342;52.378;4.648;2022-09-09T03:58:34;6.97;;;6.25;;
46593;SDS011;35342;52.378;4.648;2022-09-09T04:01:03;8.75;;;7.03;;
46593;SDS011;35342;52.378;4.648;2022-09-09T04:03:33;9.32;;;6.15;;
46593;SDS011;35342;52.378;4.648;2022-09-09T04:06:00;11.38;;;6.32;;
46593;SDS011;35342;52.378;4.648;2022-09-09T04:08:28;6.43;;;5.82;;
46593;SDS011;35342;52.378;4.648;2022-09-09T04:10:58;10.70;;;6.03;;
46593;SDS011;35342;52.378;4.648;2022-09-09T04:13:25;12.98;;;6.97;;
46593;SDS011;35342;52.378;4.648;2022-09-09T04:15:55;11.02;;;7.18;;
46593;SDS011;35342;52.378;4.648;2022-09-09T04:18:23;8.98;;;6.40;;
46593;SDS011;35342;52.378;4.648;2022-09-09T04:20:51;12.93;;;7.05;;
46593;SDS011;35342;52.378;4.648;2022-09-09T04:23:18;12.75;;;7.10;;
46593;SDS011;35342;52.378;4.648;2022-09-09T04:25:49;10.18;;;7.30;;
46593;SDS011;35342;52.378;4.648;2022-09-09T04:28:18;10.18;;;6.53;;
46593;SDS011;35342;52.378;4.648;2022-09-09T04:30:46;11.57;;;6.60;;
46593;SDS011;35342;52.378;4.648;2022-09-09T04:33:13;13.82;;;7.03;;
46593;SDS011;35342;52.378;4.648;2022-09-09T04:35:44;9.95;;;6.55;;
46593;SDS011;35342;52.378;4.648;2022-09-09T04:38:12;10.57;;;7.18;;
46593;SDS011;35342;52.378;4.648;2022-09-09T04:40:38;12.52;;;7.00;;
46593;SDS011;35342;52.378;4.648;2022-09-09T04:43:07;11.48;;;7.10;;
46593;SDS011;35342;52.378;4.648;2022-09-09T04:45:34;9.45;;;6.07;;
46593;SDS011;35342;52.378;4.648;2022-09-09T04:48:00;8.68;;;6.07;;
46593;SDS011;35342;52.378;4.648;2022-09-09T04:50:27;9.68;;;7.00;;
46593;SDS011;35342;52.378;4.648;2022-09-09T04:52:53;8.52;;;6.30;;
46593;SDS011;35342;52.378;4.648;2022-09-09T04:55:19;9.13;;;6.25;;
46593;SDS011;35342;52.378;4.648;2022-09-09T04:57:45;10.80;;;6.22;;
46593;SDS011;35342;52.378;4.648;2022-09-09T05:00:11;7.22;;;5.97;;
46593;SDS011;35342;52.378;4.648;2022-09-09T05:02:38;7.18;;;5.63;;
46593;SDS011;35342;52.378;4.648;2022-09-09T05:05:05;8.55;;;5.72;;
46593;SDS011;35342;52.378;4.648;2022-09-09T05:07:36;9.20;;;6.45;;
46593;SDS011;35342;52.378;4.648;2022-09-09T05:10:02;8.02;;;5.80;;
46593;SDS011;35342;52.378;4.648;2022-09-09T05:12:30;7.40;;;5.05;;
46593;SDS011;35342;52.378;4.648;2022-09-09T05:14:56;6.85;;;4.60;;
46593;SDS011;35342;52.378;4.648;2022-09-09T05:17:22;13.60;;;5.25;;
46593;SDS011;35342;52.378;4.648;2022-09-09T05:19:48;9.07;;;5.03;;
46593;SDS011;35342;52.378;4.648;2022-09-09T05:22:18;12.13;;;5.32;;
46593;SDS011;35342;52.378;4.648;2022-09-09T05:24:48;5.88;;;4.78;;
46593;SDS011;35342;52.378;4.648;2022-09-09T05:27:18;11.90;;;5.53;;
46593;SDS011;35342;52.378;4.648;2022-09-09T05:29:47;5.43;;;4.03;;
46593;SDS011;35342;52.378;4.648;2022-09-09T05:32:13;5.85;;;4.22;;
46593;SDS011;35342;52.378;4.648;2022-09-09T05:34:40;8.45;;;3.55;;
46593;SDS011;35342;52.378;4.648;2022-09-09T05:37:06;7.60;;;3.88;;
46593;SDS011;35342;52.378;4.648;2022-09-09T05:39:32;7.20;;;4.18;;
46593;SDS011;35342;52.378;4.648;2022-09-09T05:42:01;6.88;;;4.07;;
46593;SDS011;35342;52.378;4.648;2022-09-09T05:44:27;5.72;;;3.58;;
46593;SDS011;35342;52.378;4.648;2022-09-09T05:46:54;6.45;;;3.65;;
46593;SDS011;35342;52.378;4.648;2022-09-09T05:49:19;8.65;;;4.82;;
46593;SDS011;35342;52.378;4.648;2022-09-09T05:51:46;4.72;;;3.17;;
46593;SDS011;35342;52.378;4.648;2022-09-09T05:54:12;5.72;;;3.72;;
46593;SDS011;35342;52.378;4.648;2022-09-09T05:56:40;9.10;;;3.22;;
46593;SDS011;35342;52.378;4.648;2022-09-09T05:59:06;4.18;;;2.53;;
46593;SDS011;35342;52.378;4.648;2022-09-09T06:01:33;4.95;;;2.95;;
46593;SDS011;35342;52.378;4.648;2022-09-09T06:04:01;5.00;;;2.95;;
46593;SDS011;35342;52.378;4.648;2022-09-09T06:06:30;3.78;;;2.50;;
46593;SDS011;35342;52.378;4.648;2022-09-09T06:09:02;6.57;;;2.30;;
46593;SDS011;35342;52.378;4.648;2022-09-09T06:11:31;5.22;;;2.08;;
46593;SDS011;35342;52.378;4.648;2022-09-09T06:13:59;10.82;;;2.60;;
46593;SDS011;35342;52.378;4.648;2022-09-09T06:16:26;7.40;;;1.95;;
46593;SDS011;35342;52.378;4.648;2022-09-09T06:18:54;3.97;;;1.80;;
46593;SDS011;35342;52.378;4.648;2022-09-09T06:21:29;6.05;;;1.90;;
46593;SDS011;35342;52.378;4.648;2022-09-09T06:23:58;4.07;;;1.80;;
46593;SDS011;35342;52.378;4.648;2022-09-09T06:26:29;4.10;;;1.80;;
46593;SDS011;35342;52.378;4.648;2022-09-09T06:28:57;8.55;;;2.03;;
46593;SDS011;35342;52.378;4.648;2022-09-09T06:31:28;3.75;;;1.42;;
46593;SDS011;35342;52.378;4.648;2022-09-09T06:33:56;4.28;;;1.50;;
46593;SDS011;35342;52.378;4.648;2022-09-09T06:36:27;6.65;;;2.08;;
46593;SDS011;35342;52.378;4.648;2022-09-09T06:38:56;5.53;;;1.80;;
46593;SDS011;35342;52.378;4.648;2022-09-09T06:41:23;4.30;;;1.98;;
46593;SDS011;35342;52.378;4.648;2022-09-09T06:43:52;5.57;;;1.83;;
46593;SDS011;35342;52.378;4.648;2022-09-09T06:46:19;6.43;;;1.80;;
46593;SDS011;35342;52.378;4.648;2022-09-09T06:48:47;4.65;;;1.63;;
46593;SDS011;35342;52.378;4.648;2022-09-09T06:51:20;4.40;;;1.55;;
46593;SDS011;35342;52.378;4.648;2022-09-09T06:53:55;5.18;;;1.60;;
46593;SDS011;35342;52.378;4.648;2022-09-09T06:56:27;6.25;;;1.55;;
46593;SDS011;35342;52.378;4.648;2022-09-09T06:58:59;7.32;;;1.90;;
46593;SDS011;35342;52.378;4.648;2022-09-09T07:01:32;4.53;;;1.60;;
46593;SDS011;35342;52.378;4.648;2022-09-09T07:04:01;10.45;;;2.15;;
46593;SDS011;35342;52.378;4.648;2022-09-09T07:06:29;6.95;;;2.05;;
46593;SDS011;35342;52.378;4.648;2022-09-09T07:09:07;5.28;;;1.75;;
46593;SDS011;35342;52.378;4.648;2022-09-09T07:11:44;4.50;;;2.05;;
46593;SDS011;35342;52.378;4.648;2022-09-09T07:14:13;8.23;;;2.35;;
46593;SDS011;35342;52.378;4.648;2022-09-09T07:16:40;8.00;;;1.98;;
46593;SDS011;35342;52.378;4.648;2022-09-09T07:19:07;5.95;;;1.58;;
46593;SDS011;35342;52.378;4.648;2022-09-09T07:21:33;6.72;;;2.33;;
46593;SDS011;35342;52.378;4.648;2022-09-09T07:23:59;5.10;;;1.90;;
46593;SDS011;35342;52.378;4.648;2022-09-09T07:26:28;4.28;;;1.70;;
46593;SDS011;35342;52.378;4.648;2022-09-09T07:28:55;9.30;;;3.03;;
46593;SDS011;35342;52.378;4.648;2022-09-09T07:31:32;5.05;;;2.35;;
46593;SDS011;35342;52.378;4.648;2022-09-09T07:34:01;7.90;;;3.00;;
46593;SDS011;35342;52.378;4.648;2022-09-09T07:36:38;10.57;;;3.20;;
46593;SDS011;35342;52.378;4.648;2022-09-09T07:39:11;7.38;;;2.63;;
46593;SDS011;35342;52.378;4.648;2022-09-09T07:41:39;7.90;;;2.17;;
46593;SDS011;35342;52.378;4.648;2022-09-09T07:44:12;8.40;;;2.10;;
46593;SDS011;35342;52.378;4.648;2022-09-09T07:46:42;4.45;;;1.70;;
46593;SDS011;35342;52.378;4.648;2022-09-09T07:49:09;3.47;;;2.45;;
46593;SDS011;35342;52.378;4.648;2022-09-09T07:51:37;7.30;;;2.03;;
46593;SDS011;35342;52.378;4.648;2022-09-09T07:54:06;11.55;;;2.47;;
46593;SDS011;35342;52.378;4.648;2022-09-09T07:56:36;6.80;;;2.60;;
46593;SDS011;35342;52.378;4.648;2022-09-09T07:59:04;6.53;;;2.17;;
46593;SDS011;35342;52.378;4.648;2022-09-09T08:01:32;5.65;;;2.08;;
46593;SDS011;35342;52.378;4.648;2022-09-09T08:04:14;8.57;;;2.25;;
46593;SDS011;35342;52.378;4.648;2022-09-09T08:06:51;8.05;;;2.15;;
46593;SDS011;35342;52.378;4.648;2022-09-09T08:09:22;5.45;;;2.08;;
46593;SDS011;35342;52.378;4.648;2022-09-09T08:11:51;6.97;;;2.75;;
46593;SDS011;35342;52.378;4.648;2022-09-09T08:14:18;7.20;;;2.60;;
46593;SDS011;35342;52.378;4.648;2022-09-09T08:16:45;5.32;;;2.28;;
46593;SDS011;35342;52.378;4.648;2022-09-09T08:19:13;5.60;;;1.75;;
46593;SDS011;35342;52.378;4.648;2022-09-09T08:21:40;8.13;;;3.22;;
46593;SDS011;35342;52.378;4.648;2022-09-09T08:24:07;5.25;;;2.15;;
46593;SDS011;35342;52.378;4.648;2022-09-09T08:26:39;7.80;;;2.45;;
46593;SDS011;35342;52.378;4.648;2022-09-09T08:29:10;10.15;;;3.08;;
46593;SDS011;35342;52.378;4.648;2022-09-09T08:31:57;4.82;;;2.22;;
46593;SDS011;35342;52.378;4.648;2022-09-09T08:34:24;6.95;;;1.98;;
46593;SDS011;35342;52.378;4.648;2022-09-09T08:36:52;6.45;;;2.42;;
46593;SDS011;35342;52.378;4.648;2022-09-09T08:39:19;8.40;;;2.38;;
46593;SDS011;35342;52.378;4.648;2022-09-09T08:41:58;5.18;;;2.13;;
46593;SDS011;35342;52.378;4.648;2022-09-09T08:45:20;6.15;;;2.63;;
46593;SDS011;35342;52.378;4.648;2022-09-09T08:51:01;5.47;;;1.60;;
46593;SDS011;35342;52.378;4.648;2022-09-09T08:53:37;5.35;;;1.75;;
46593;SDS011;35342;52.378;4.648;2022-09-09T08:56:16;8.55;;;2.10;;
46593;SDS011;35342;52.378;4.648;2022-09-09T08:58:50;6.07;;;2.25;;
46593;SDS011;35342;52.378;4.648;2022-09-09T09:13:32;4.63;;;1.65;;
46593;SDS011;35342;52.378;4.648;2022-09-09T09:16:14;5.00;;;2.40;;
46593;SDS011;35342;52.378;4.648;2022-09-09T09:18:58;5.13;;;2.30;;
46593;SDS011;35342;52.378;4.648;2022-09-09T09:21:33;7.18;;;3.25;;
46593;SDS011;35342;52.378;4.648;2022-09-09T09:24:19;5.60;;;2.83;;
46593;SDS011;35342;52.378;4.648;2022-09-09T09:26:52;7.75;;;2.17;;
46593;SDS011;35342;52.378;4.648;2022-09-09T09:29:19;12.35;;;2.50;;
46593;SDS011;35342;52.378;4.648;2022-09-09T09:31:53;5.82;;;2.83;;
46593;SDS011;35342;52.378;4.648;2022-09-09T09:34:24;5.82;;;2.10;;
46593;SDS011;35342;52.378;4.648;2022-09-09T09:36:56;9.15;;;1.80;;
46593;SDS011;35342;52.378;4.648;2022-09-09T09:39:30;6.22;;;2.35;;
46593;SDS011;35342;52.378;4.648;2022-09-09T09:42:15;5.25;;;2.15;;
46593;SDS011;35342;52.378;4.648;2022-09-09T09:44:42;8.38;;;2.22;;
46593;SDS011;35342;52.378;4.648;2022-09-09T09:47:11;7.45;;;2.22;;
46593;SDS011;35342;52.378;4.648;2022-09-09T09:49:58;9.68;;;2.17;;
46593;SDS011;35342;52.378;4.648;2022-09-09T09:52:26;10.13;;;2.53;;
46593;SDS011;35342;52.378;4.648;2022-09-09T09:54:55;11.82;;;3.25;;
46593;SDS011;35342;52.378;4.648;2022-09-09T09:57:27;9.68;;;1.80;;
46593;SDS011;35342;52.378;4.648;2022-09-09T10:02:46;4.03;;;2.17;;
46593;SDS011;35342;52.378;4.648;2022-09-09T10:07:45;6.22;;;2.40;;
46593;SDS011;35342;52.378;4.648;2022-09-09T10:10:32;8.98;;;2.42;;
46593;SDS011;35342;52.378;4.648;2022-09-09T10:13:20;6.85;;;1.90;;
46593;SDS011;35342;52.378;4.648;2022-09-09T10:22:17;10.27;;;2.33;;
46593;SDS011;35342;52.378;4.648;2022-09-09T10:31:13;8.27;;;1.73;;
46593;SDS011;35342;52.378;4.648;2022-09-09T10:37:00;6.10;;;2.20;;
46593;SDS011;35342;52.378;4.648;2022-09-09T10:42:14;15.00;;;1.85;;
46593;SDS011;35342;52.378;4.648;2022-09-09T10:56:08;6.72;;;2.05;;
46593;SDS011;35342;52.378;4.648;2022-09-09T10:59:22;5.32;;;1.77;;
46593;SDS011;35342;52.378;4.648;2022-09-09T11:04:17;3.83;;;1.10;;
46593;SDS011;35342;52.378;4.648;2022-09-09T11:06:48;10.15;;;2.35;;
46593;SDS011;35342;52.378;4.648;2022-09-09T11:09:21;3.95;;;1.00;;
46593;SDS011;35342;52.378;4.648;2022-09-09T11:11:55;7.30;;;1.77;;
46593;SDS011;35342;52.378;4.648;2022-09-09T11:14:37;7.93;;;1.70;;
46593;SDS011;35342;52.378;4.648;2022-09-09T11:17:18;3.40;;;1.33;;
46593;SDS011;35342;52.378;4.648;2022-09-09T11:19:49;5.68;;;1.73;;
46593;SDS011;35342;52.378;4.648;2022-09-09T11:36:50;5.45;;;2.00;;
46593;SDS011;35342;52.378;4.648;2022-09-09T11:42:34;5.22;;;1.77;;
46593;SDS011;35342;52.378;4.648;2022-09-09T11:47:59;5.22;;;1.77;;
46593;SDS011;35342;52.378;4.648;2022-09-09T11:50:31;8.20;;;2.63;;
46593;SDS011;35342;52.378;4.648;2022-09-09T11:53:19;4.13;;;1.42;;
46593;SDS011;35342;52.378;4.648;2022-09-09T11:55:47;5.03;;;1.50;;
46593;SDS011;35342;52.378;4.648;2022-09-09T11:58:30;2.97;;;1.23;;
46593;SDS011;35342;52.378;4.648;2022-09-09T12:01:28;5.20;;;1.45;;
46593;SDS011;35342;52.378;4.648;2022-09-09T12:04:34;3.33;;;1.35;;
46593;SDS011;35342;52.378;4.648;2022-09-09T12:15:20;3.63;;;1.23;;
46593;SDS011;35342;52.378;4.648;2022-09-09T12:17:53;4.55;;;1.73;;
46593;SDS011;35342;52.378;4.648;2022-09-09T12:23:19;5.43;;;1.10;;
46593;SDS011;35342;52.378;4.648;2022-09-09T12:31:54;4.28;;;1.40;;
46593;SDS011;35342;52.378;4.648;2022-09-09T12:34:37;3.38;;;1.23;;
46593;SDS011;35342;52.378;4.648;2022-09-09T12:40:00;9.07;;;1.60;;
46593;SDS011;35342;52.378;4.648;2022-09-09T12:42:33;2.80;;;1.25;;
46593;SDS011;35342;52.378;4.648;2022-09-09T12:45:14;2.30;;;1.55;;
46593;SDS011;35342;52.378;4.648;2022-09-09T12:47:56;6.43;;;2.10;;
46593;SDS011;35342;52.378;4.648;2022-09-09T12:50:37;4.00;;;1.65;;
46593;SDS011;35342;52.378;4.648;2022-09-09T12:56:04;5.68;;;1.65;;
46593;SDS011;35342;52.378;4.648;2022-09-09T12:58:45;3.60;;;1.58;;
46593;SDS011;35342;52.378;4.648;2022-09-09T13:01:21;4.63;;;1.90;;
46593;SDS011;35342;52.378;4.648;2022-09-09T13:03:50;4.70;;;1.67;;
46593;SDS011;35342;52.378;4.648;2022-09-09T13:06:21;4.00;;;1.83;;
46593;SDS011;35342;52.378;4.648;2022-09-09T13:08:53;4.03;;;1.50;;
46593;SDS011;35342;52.378;4.648;2022-09-09T13:11:31;4.70;;;1.90;;
46593;SDS011;35342;52.378;4.648;2022-09-09T13:14:04;5.00;;;1.40;;
46593;SDS011;35342;52.378;4.648;2022-09-09T13:16:34;4.70;;;1.85;;
46593;SDS011;35342;52.378;4.648;2022-09-09T13:19:02;4.25;;;1.60;;
46593;SDS011;35342;52.378;4.648;2022-09-09T13:21:39;5.97;;;1.20;;
46593;SDS011;35342;52.378;4.648;2022-09-09T13:24:06;4.07;;;1.50;;
46593;SDS011;35342;52.378;4.648;2022-09-09T13:27:01;5.38;;;1.73;;
46593;SDS011;35342;52.378;4.648;2022-09-09T13:29:30;5.65;;;1.70;;
46593;SDS011;35342;52.378;4.648;2022-09-09T13:32:04;5.43;;;1.60;;
46593;SDS011;35342;52.378;4.648;2022-09-09T13:34:38;3.78;;;1.45;;
46593;SDS011;35342;52.378;4.648;2022-09-09T13:37:05;3.55;;;1.85;;
46593;SDS011;35342;52.378;4.648;2022-09-09T13:39:50;5.18;;;1.67;;
46593;SDS011;35342;52.378;4.648;2022-09-09T13:42:25;2.00;;;1.10;;
46593;SDS011;35342;52.378;4.648;2022-09-09T13:44:54;5.03;;;1.42;;
46593;SDS011;35342;52.378;4.648;2022-09-09T13:47:28;3.80;;;1.50;;
46593;SDS011;35342;52.378;4.648;2022-09-09T13:49:58;2.25;;;1.33;;
46593;SDS011;35342;52.378;4.648;2022-09-09T13:52:54;3.03;;;0.85;;
46593;SDS011;35342;52.378;4.648;2022-09-09T13:55:26;4.40;;;1.17;;
46593;SDS011;35342;52.378;4.648;2022-09-09T13:57:57;6.38;;;1.60;;
46593;SDS011;35342;52.378;4.648;2022-09-09T14:00:25;4.38;;;1.65;;
46593;SDS011;35342;52.378;4.648;2022-09-09T14:02:54;4.07;;;2.20;;
46593;SDS011;35342;52.378;4.648;2022-09-09T14:05:22;3.88;;;1.38;;
46593;SDS011;35342;52.378;4.648;2022-09-09T14:07:48;5.05;;;1.13;;
46593;SDS011;35342;52.378;4.648;2022-09-09T14:10:15;3.78;;;1.10;;
46593;SDS011;35342;52.378;4.648;2022-09-09T14:12:41;3.63;;;1.17;;
46593;SDS011;35342;52.378;4.648;2022-09-09T14:15:07;7.43;;;1.50;;
46593;SDS011;35342;52.378;4.648;2022-09-09T14:17:36;1.63;;;1.17;;
46593;SDS011;35342;52.378;4.648;2022-09-09T14:20:03;3.22;;;1.40;;
46593;SDS011;35342;52.378;4.648;2022-09-09T14:22:34;2.90;;;1.02;;
46593;SDS011;35342;52.378;4.648;2022-09-09T14:25:02;3.45;;;1.63;;
46593;SDS011;35342;52.378;4.648;2022-09-09T14:27:28;4.05;;;1.30;;
46593;SDS011;35342;52.378;4.648;2022-09-09T14:29:55;2.70;;;1.17;;
46593;SDS011;35342;52.378;4.648;2022-09-09T14:32:21;4.70;;;1.30;;
46593;SDS011;35342;52.378;4.648;2022-09-09T14:34:47;4.82;;;1.75;;
46593;SDS011;35342;52.378;4.648;2022-09-09T14:37:16;4.93;;;1.60;;
46593;SDS011;35342;52.378;4.648;2022-09-09T14:39:43;6.88;;;1.95;;
46593;SDS011;35342;52.378;4.648;2022-09-09T14:42:12;3.35;;;1.13;;
46593;SDS011;35342;52.378;4.648;2022-09-09T14:44:39;3.00;;;1.42;;
46593;SDS011;35342;52.378;4.648;2022-09-09T14:47:05;5.30;;;1.95;;
46593;SDS011;35342;52.378;4.648;2022-09-09T14:49:33;3.53;;;1.40;;
46593;SDS011;35342;52.378;4.648;2022-09-09T14:52:00;3.78;;;1.52;;
46593;SDS011;35342;52.378;4.648;2022-09-09T14:54:26;2.78;;;0.95;;
46593;SDS011;35342;52.378;4.648;2022-09-09T14:56:53;5.45;;;1.42;;
46593;SDS011;35342;52.378;4.648;2022-09-09T14:59:19;4.68;;;1.52;;
46593;SDS011;35342;52.378;4.648;2022-09-09T15:01:45;5.32;;;1.40;;
46593;SDS011;35342;52.378;4.648;2022-09-09T15:04:12;4.13;;;1.40;;
46593;SDS011;35342;52.378;4.648;2022-09-09T15:06:39;4.22;;;1.00;;
46593;SDS011;35342;52.378;4.648;2022-09-09T15:09:08;5.93;;;1.92;;
46593;SDS011;35342;52.378;4.648;2022-09-09T15:11:35;3.58;;;1.02;;
46593;SDS011;35342;52.378;4.648;2022-09-09T15:14:03;3.00;;;1.20;;
46593;SDS011;35342;52.378;4.648;2022-09-09T15:16:30;4.40;;;1.13;;
46593;SDS011;35342;52.378;4.648;2022-09-09T15:18:57;4.20;;;1.17;;
46593;SDS011;35342;52.378;4.648;2022-09-09T15:21:26;4.80;;;2.00;;
46593;SDS011;35342;52.378;4.648;2022-09-09T15:23:57;5.28;;;1.40;;
46593;SDS011;35342;52.378;4.648;2022-09-09T15:26:24;3.47;;;1.48;;
46593;SDS011;35342;52.378;4.648;2022-09-09T15:28:51;2.85;;;1.48;;
46593;SDS011;35342;52.378;4.648;2022-09-09T15:31:18;3.10;;;1.25;;
46593;SDS011;35342;52.378;4.648;2022-09-09T15:34:03;3.25;;;1.10;;
46593;SDS011;35342;52.378;4.648;2022-09-09T15:36:32;1.75;;;0.93;;
46593;SDS011;35342;52.378;4.648;2022-09-09T15:39:08;4.13;;;1.30;;
46593;SDS011;35342;52.378;4.648;2022-09-09T15:41:45;3.60;;;1.42;;
46593;SDS011;35342;52.378;4.648;2022-09-09T15:44:12;6.05;;;1.50;;
46593;SDS011;35342;52.378;4.648;2022-09-09T15:46:40;4.80;;;1.90;;
46593;SDS011;35342;52.378;4.648;2022-09-09T15:49:25;3.58;;;1.00;;
46593;SDS011;35342;52.378;4.648;2022-09-09T15:51:55;9.48;;;1.73;;
46593;SDS011;35342;52.378;4.648;2022-09-09T15:54:24;5.80;;;1.15;;
46593;SDS011;35342;52.378;4.648;2022-09-09T15:56:54;3.15;;;0.80;;
46593;SDS011;35342;52.378;4.648;2022-09-09T15:59:23;3.58;;;1.08;;
46593;SDS011;35342;52.378;4.648;2022-09-09T16:01:52;4.40;;;1.20;;
46593;SDS011;35342;52.378;4.648;2022-09-09T16:04:18;5.70;;;1.25;;
46593;SDS011;35342;52.378;4.648;2022-09-09T16:06:54;3.72;;;1.65;;
46593;SDS011;35342;52.378;4.648;2022-09-09T16:09:28;6.30;;;1.70;;
46593;SDS011;35342;52.378;4.648;2022-09-09T16:11:59;3.75;;;0.90;;
46593;SDS011;35342;52.378;4.648;2022-09-09T16:14:26;8.95;;;2.78;;
46593;SDS011;35342;52.378;4.648;2022-09-09T16:16:53;8.82;;;2.22;;
46593;SDS011;35342;52.378;4.648;2022-09-09T16:19:20;5.93;;;1.35;;
46593;SDS011;35342;52.378;4.648;2022-09-09T16:21:46;3.45;;;1.30;;
46593;SDS011;35342;52.378;4.648;2022-09-09T16:24:15;4.97;;;2.08;;
46593;SDS011;35342;52.378;4.648;2022-09-09T16:26:45;6.97;;;2.25;;
46593;SDS011;35342;52.378;4.648;2022-09-09T16:29:19;3.90;;;1.58;;
46593;SDS011;35342;52.378;4.648;2022-09-09T16:31:47;6.18;;;1.48;;
46593;SDS011;35342;52.378;4.648;2022-09-09T16:34:15;6.68;;;1.23;;
46593;SDS011;35342;52.378;4.648;2022-09-09T16:36:42;5.18;;;1.60;;
46593;SDS011;35342;52.378;4.648;2022-09-09T16:39:10;4.85;;;1.52;;
46593;SDS011;35342;52.378;4.648;2022-09-09T16:41:39;6.32;;;1.98;;
46593;SDS011;35342;52.378;4.648;2022-09-09T16:44:07;7.03;;;2.00;;
46593;SDS011;35342;52.378;4.648;2022-09-09T16:46:36;9.52;;;3.38;;
46593;SDS011;35342;52.378;4.648;2022-09-09T16:49:06;8.73;;;3.25;;
46593;SDS011;35342;52.378;4.648;2022-09-09T16:51:36;3.80;;;1.60;;
46593;SDS011;35342;52.378;4.648;2022-09-09T16:54:11;4.05;;;1.20;;
46593;SDS011;35342;52.378;4.648;2022-09-09T16:56:39;5.88;;;2.00;;
46593;SDS011;35342;52.378;4.648;2022-09-09T16:59:11;2.38;;;1.15;;
46593;SDS011;35342;52.378;4.648;2022-09-09T17:01:42;3.60;;;1.17;;
46593;SDS011;35342;52.378;4.648;2022-09-09T17:04:14;5.47;;;1.23;;
46593;SDS011;35342;52.378;4.648;2022-09-09T17:06:49;4.68;;;1.48;;
46593;SDS011;35342;52.378;4.648;2022-09-09T17:09:17;4.40;;;1.33;;
46593;SDS011;35342;52.378;4.648;2022-09-09T17:11:45;3.55;;;1.67;;
46593;SDS011;35342;52.378;4.648;2022-09-09T17:14:13;4.93;;;1.27;;
46593;SDS011;35342;52.378;4.648;2022-09-09T17:16:42;6.50;;;2.42;;
46593;SDS011;35342;52.378;4.648;2022-09-09T17:19:08;3.50;;;1.30;;
46593;SDS011;35342;52.378;4.648;2022-09-09T17:21:36;6.32;;;2.03;;
46593;SDS011;35342;52.378;4.648;2022-09-09T17:24:02;5.88;;;1.65;;
46593;SDS011;35342;52.378;4.648;2022-09-09T17:26:30;5.18;;;1.30;;
46593;SDS011;35342;52.378;4.648;2022-09-09T17:28:58;6.85;;;2.10;;
46593;SDS011;35342;52.378;4.648;2022-09-09T17:31:26;5.00;;;1.77;;
46593;SDS011;35342;52.378;4.648;2022-09-09T17:33:54;8.43;;;2.80;;
46593;SDS011;35342;52.378;4.648;2022-09-09T17:36:22;4.90;;;1.63;;
46593;SDS011;35342;52.378;4.648;2022-09-09T17:38:51;6.40;;;2.03;;
46593;SDS011;35342;52.378;4.648;2022-09-09T17:41:19;3.50;;;1.73;;
46593;SDS011;35342;52.378;4.648;2022-09-09T17:43:51;6.07;;;1.63;;
46593;SDS011;35342;52.378;4.648;2022-09-09T17:46:18;2.45;;;1.48;;